sensor_id;sensor_type;location;lat;lon;timestamp;pressure;altitude;pressure_sealevel;temperature;humidity
18988;BME280;5494;51.796;10.952;2023-04-05T00:01:05;99816.91;;;0.57;77.11
18988;BME280;5494;51.796;10.952;2023-04-05T00:03:35;99816.91;;;0.51;78.09
18988;BME280;5494;51.796;10.952;2023-04-05T00:06:04;99823.75;;;0.56;77.67
18988;BME280;5494;51.796;10.952;2023-04-05T00:08:33;99812.69;;;0.63;77.85
18988;BME280;5494;51.796;10.952;2023-04-05T00:11:01;99809.28;;;0.55;77.69
18988;BME280;5494;51.796;10.952;2023-04-05T00:13:29;99804.97;;;0.51;77.69
18988;BME280;5494;51.796;10.952;2023-04-05T00:15:57;99805.81;;;0.44;78.17
18988;BME280;5494;51.796;10.952;2023-04-05T00:18:27;99799.00;;;0.40;78.77
18988;BME280;5494;51.796;10.952;2023-04-05T00:21:01;99807.50;;;0.44;78.61
18988;BME280;5494;51.796;10.952;2023-04-05T00:23:29;99802.38;;;0.33;78.90
18988;BME280;5494;51.796;10.952;2023-04-05T00:26:03;99802.38;;;0.39;79.52
18988;BME280;5494;51.796;10.952;2023-04-05T00:28:31;99796.44;;;0.40;79.01
18988;BME280;5494;51.796;10.952;2023-04-05T00:30:59;99799.81;;;0.37;78.91
18988;BME280;5494;51.796;10.952;2023-04-05T00:33:27;99798.09;;;0.32;79.09
18988;BME280;5494;51.796;10.952;2023-04-05T00:35:55;99796.38;;;0.29;79.74
18988;BME280;5494;51.796;10.952;2023-04-05T00:38:25;99790.41;;;0.29;79.41
18988;BME280;5494;51.796;10.952;2023-04-05T00:40:52;99790.44;;;0.33;79.77
18988;BME280;5494;51.796;10.952;2023-04-05T00:43:21;99788.72;;;0.31;79.47
18988;BME280;5494;51.796;10.952;2023-04-05T00:45:48;99796.41;;;0.35;79.18
18988;BME280;5494;51.796;10.952;2023-04-05T00:48:17;99791.28;;;0.31;78.77
18988;BME280;5494;51.796;10.952;2023-04-05T00:50:48;99795.56;;;0.33;79.36
18988;BME280;5494;51.796;10.952;2023-04-05T00:53:18;99783.63;;;0.32;78.77
18988;BME280;5494;51.796;10.952;2023-04-05T00:55:48;99784.44;;;0.30;79.41
18988;BME280;5494;51.796;10.952;2023-04-05T00:58:17;99785.31;;;0.27;79.25
18988;BME280;5494;51.796;10.952;2023-04-05T01:00:58;99775.94;;;0.26;79.31
18988;BME280;5494;51.796;10.952;2023-04-05T01:03:31;99776.75;;;0.22;80.26
18988;BME280;5494;51.796;10.952;2023-04-05T01:06:13;99775.03;;;0.15;80.35
18988;BME280;5494;51.796;10.952;2023-04-05T01:08:54;99775.91;;;0.23;80.50
18988;BME280;5494;51.796;10.952;2023-04-05T01:11:29;99775.91;;;0.22;80.91
18988;BME280;5494;51.796;10.952;2023-04-05T01:13:59;99780.16;;;0.17;80.83
18988;BME280;5494;51.796;10.952;2023-04-05T01:16:28;99779.31;;;0.19;81.21
18988;BME280;5494;51.796;10.952;2023-04-05T01:18:56;99771.63;;;0.12;80.98
18988;BME280;5494;51.796;10.952;2023-04-05T01:22:10;99771.59;;;0.15;80.98
18988;BME280;5494;51.796;10.952;2023-04-05T01:25:01;99769.06;;;0.21;80.73
18988;BME280;5494;51.796;10.952;2023-04-05T01:27:58;99770.81;;;0.20;80.92
18988;BME280;5494;51.796;10.952;2023-04-05T01:30:36;99764.84;;;0.26;81.86
18988;BME280;5494;51.796;10.952;2023-04-05T01:33:16;99769.94;;;0.18;81.40
18988;BME280;5494;51.796;10.952;2023-04-05T01:35:54;99773.34;;;0.22;82.36
18988;BME280;5494;51.796;10.952;2023-04-05T01:38:28;99768.25;;;0.28;81.71
18988;BME280;5494;51.796;10.952;2023-04-05T01:40:57;99777.59;;;0.23;80.95
18988;BME280;5494;51.796;10.952;2023-04-05T01:43:25;99775.06;;;0.20;82.11
18988;BME280;5494;51.796;10.952;2023-04-05T01:45:54;99774.13;;;0.07;81.83
18988;BME280;5494;51.796;10.952;2023-04-05T01:48:22;99780.97;;;0.11;83.03
18988;BME280;5494;51.796;10.952;2023-04-05T01:50:50;99777.56;;;0.11;84.48
18988;BME280;5494;51.796;10.952;2023-04-05T01:53:18;99776.75;;;0.18;84.13
18988;BME280;5494;51.796;10.952;2023-04-05T01:55:47;99783.56;;;0.23;83.89
18988;BME280;5494;51.796;10.952;2023-04-05T01:58:15;99782.69;;;0.15;84.59
18988;BME280;5494;51.796;10.952;2023-04-05T02:00:43;99778.47;;;0.25;84.22
18988;BME280;5494;51.796;10.952;2023-04-05T02:03:12;99788.72;;;0.31;84.70
18988;BME280;5494;51.796;10.952;2023-04-05T02:05:41;99781.06;;;0.38;84.17
18988;BME280;5494;51.796;10.952;2023-04-05T02:08:09;99781.94;;;0.44;84.07
18988;BME280;5494;51.796;10.952;2023-04-05T02:10:37;99780.25;;;0.52;84.36
18988;BME280;5494;51.796;10.952;2023-04-05T02:13:06;99777.69;;;0.50;84.94
18988;BME280;5494;51.796;10.952;2023-04-05T02:15:33;99781.97;;;0.57;85.07
18988;BME280;5494;51.796;10.952;2023-04-05T02:18:02;99785.41;;;0.55;85.88
18988;BME280;5494;51.796;10.952;2023-04-05T02:20:31;99780.19;;;0.30;87.82
18988;BME280;5494;51.796;10.952;2023-04-05T02:23:00;99777.66;;;0.38;88.34
18988;BME280;5494;51.796;10.952;2023-04-05T02:25:28;99781.84;;;0.21;89.12
18988;BME280;5494;51.796;10.952;2023-04-05T02:27:56;99779.31;;;0.18;89.58
18988;BME280;5494;51.796;10.952;2023-04-05T02:30:24;99782.75;;;0.27;89.74
18988;BME280;5494;51.796;10.952;2023-04-05T02:32:54;99786.16;;;0.35;89.43
18988;BME280;5494;51.796;10.952;2023-04-05T02:35:23;99776.78;;;0.28;89.58
18988;BME280;5494;51.796;10.952;2023-04-05T02:37:52;99777.66;;;0.35;90.44
18988;BME280;5494;51.796;10.952;2023-04-05T02:40:20;99772.59;;;0.47;90.09
18988;BME280;5494;51.796;10.952;2023-04-05T02:42:48;99780.25;;;0.50;89.70
18988;BME280;5494;51.796;10.952;2023-04-05T02:45:17;99773.41;;;0.40;90.32
18988;BME280;5494;51.796;10.952;2023-04-05T02:47:45;99768.28;;;0.43;90.61
18988;BME280;5494;51.796;10.952;2023-04-05T02:50:14;99773.47;;;0.55;89.10
18988;BME280;5494;51.796;10.952;2023-04-05T02:52:46;99776.03;;;0.66;87.90
18988;BME280;5494;51.796;10.952;2023-04-05T02:55:16;99769.22;;;0.77;87.42
18988;BME280;5494;51.796;10.952;2023-04-05T02:57:44;99763.25;;;0.79;87.16
18988;BME280;5494;51.796;10.952;2023-04-05T03:00:23;99761.56;;;0.80;87.27
18988;BME280;5494;51.796;10.952;2023-04-05T03:02:53;99759.00;;;0.86;87.39
18988;BME280;5494;51.796;10.952;2023-04-05T03:05:22;99765.81;;;0.84;86.87
18988;BME280;5494;51.796;10.952;2023-04-05T03:07:52;99761.56;;;0.92;86.13
18988;BME280;5494;51.796;10.952;2023-04-05T03:10:27;99757.31;;;1.00;85.58
18988;BME280;5494;51.796;10.952;2023-04-05T03:13:05;99758.16;;;1.07;85.33
18988;BME280;5494;51.796;10.952;2023-04-05T03:15:33;99753.88;;;1.07;83.75
18988;BME280;5494;51.796;10.952;2023-04-05T03:18:08;99757.28;;;1.12;83.21
18988;BME280;5494;51.796;10.952;2023-04-05T03:20:37;99749.59;;;1.20;82.83
18988;BME280;5494;51.796;10.952;2023-04-05T03:23:13;99751.31;;;1.27;80.88
18988;BME280;5494;51.796;10.952;2023-04-05T03:25:43;99743.63;;;1.29;80.33
18988;BME280;5494;51.796;10.952;2023-04-05T03:28:11;99738.50;;;1.36;79.21
18988;BME280;5494;51.796;10.952;2023-04-05T03:30:44;99747.06;;;1.38;78.74
18988;BME280;5494;51.796;10.952;2023-04-05T03:33:17;99743.59;;;1.45;78.63
18988;BME280;5494;51.796;10.952;2023-04-05T03:35:47;99750.44;;;1.49;78.64
18988;BME280;5494;51.796;10.952;2023-04-05T03:38:16;99742.72;;;1.57;79.28
18988;BME280;5494;51.796;10.952;2023-04-05T03:40:54;99733.31;;;1.61;79.85
18988;BME280;5494;51.796;10.952;2023-04-05T03:43:23;99735.03;;;1.63;77.74
18988;BME280;5494;51.796;10.952;2023-04-05T03:45:53;99733.31;;;1.73;76.94
18988;BME280;5494;51.796;10.952;2023-04-05T03:48:25;99731.56;;;1.75;75.92
18988;BME280;5494;51.796;10.952;2023-04-05T03:50:53;99731.56;;;1.75;76.61
18988;BME280;5494;51.796;10.952;2023-04-05T03:53:21;99730.66;;;1.91;76.59
18988;BME280;5494;51.796;10.952;2023-04-05T03:55:55;99728.13;;;1.85;76.79
18988;BME280;5494;51.796;10.952;2023-04-05T03:58:37;99727.28;;;1.83;77.44
18988;BME280;5494;51.796;10.952;2023-04-05T04:01:06;99720.38;;;1.97;76.35
18988;BME280;5494;51.796;10.952;2023-04-05T04:03:34;99724.66;;;1.96;75.89
18988;BME280;5494;51.796;10.952;2023-04-05T04:06:04;99715.34;;;1.67;78.38
18988;BME280;5494;51.796;10.952;2023-04-05T04:08:33;99715.38;;;1.70;79.68
18988;BME280;5494;51.796;10.952;2023-04-05T04:11:02;99722.19;;;1.72;79.91
18988;BME280;5494;51.796;10.952;2023-04-05T04:13:33;99715.38;;;1.73;80.46
18988;BME280;5494;51.796;10.952;2023-04-05T04:16:11;99718.75;;;1.75;80.81
18988;BME280;5494;51.796;10.952;2023-04-05T04:18:55;99717.94;;;1.61;83.41
18988;BME280;5494;51.796;10.952;2023-04-05T04:21:37;99717.97;;;1.56;84.04
18988;BME280;5494;51.796;10.952;2023-04-05T04:24:43;99718.81;;;1.63;84.74
18988;BME280;5494;51.796;10.952;2023-04-05T04:27:33;99716.25;;;1.61;85.86
18988;BME280;5494;51.796;10.952;2023-04-05T04:30:22;99711.97;;;1.65;86.42
18988;BME280;5494;51.796;10.952;2023-04-05T04:33:09;99718.81;;;1.66;86.28
18988;BME280;5494;51.796;10.952;2023-04-05T04:35:45;99724.75;;;1.69;84.88
18988;BME280;5494;51.796;10.952;2023-04-05T04:38:30;99719.72;;;1.42;87.92
18988;BME280;5494;51.796;10.952;2023-04-05T04:41:28;99718.84;;;1.40;88.06
18988;BME280;5494;51.796;10.952;2023-04-05T04:44:08;99726.53;;;1.47;86.95
18988;BME280;5494;51.796;10.952;2023-04-05T04:46:58;99730.78;;;1.59;86.53
18988;BME280;5494;51.796;10.952;2023-04-05T04:49:43;99728.16;;;1.77;86.47
18988;BME280;5494;51.796;10.952;2023-04-05T04:52:11;99727.25;;;1.89;86.42
18988;BME280;5494;51.796;10.952;2023-04-05T04:54:46;99721.22;;;2.01;85.91
18988;BME280;5494;51.796;10.952;2023-04-05T04:57:14;99720.28;;;2.18;84.91
18988;BME280;5494;51.796;10.952;2023-04-05T04:59:43;99726.25;;;2.26;84.37
18988;BME280;5494;51.796;10.952;2023-04-05T05:02:11;99728.03;;;2.03;84.77
18988;BME280;5494;51.796;10.952;2023-04-05T05:04:39;99722.06;;;2.01;85.43
18988;BME280;5494;51.796;10.952;2023-04-05T05:07:09;99728.91;;;2.05;85.81
18988;BME280;5494;51.796;10.952;2023-04-05T05:09:37;99731.44;;;2.10;84.68
18988;BME280;5494;51.796;10.952;2023-04-05T05:12:05;99735.72;;;2.09;84.35
18988;BME280;5494;51.796;10.952;2023-04-05T05:14:34;99734.00;;;2.08;84.79
18988;BME280;5494;51.796;10.952;2023-04-05T05:17:03;99728.00;;;2.09;84.99
18988;BME280;5494;51.796;10.952;2023-04-05T05:19:32;99738.25;;;2.17;85.04
18988;BME280;5494;51.796;10.952;2023-04-05T05:22:00;99731.41;;;2.20;85.22
18988;BME280;5494;51.796;10.952;2023-04-05T05:24:28;99733.97;;;2.20;84.67
18988;BME280;5494;51.796;10.952;2023-04-05T05:26:56;99736.53;;;2.16;83.98
18988;BME280;5494;51.796;10.952;2023-04-05T05:29:24;99745.13;;;2.12;84.19
18988;BME280;5494;51.796;10.952;2023-04-05T05:31:52;99734.00;;;2.14;85.57
18988;BME280;5494;51.796;10.952;2023-04-05T05:34:22;99738.25;;;2.18;86.28
18988;BME280;5494;51.796;10.952;2023-04-05T05:36:54;99733.94;;;2.23;86.14
18988;BME280;5494;51.796;10.952;2023-04-05T05:39:23;99736.50;;;2.26;86.76
18988;BME280;5494;51.796;10.952;2023-04-05T05:41:51;99729.63;;;2.31;86.29
18988;BME280;5494;51.796;10.952;2023-04-05T05:44:19;99731.28;;;2.38;85.03
18988;BME280;5494;51.796;10.952;2023-04-05T05:46:47;99728.69;;;2.45;84.42
18988;BME280;5494;51.796;10.952;2023-04-05T05:49:16;99726.06;;;2.54;83.09
18988;BME280;5494;51.796;10.952;2023-04-05T05:51:45;99721.78;;;2.56;81.33
18988;BME280;5494;51.796;10.952;2023-04-05T05:54:13;99726.84;;;2.65;80.93
18988;BME280;5494;51.796;10.952;2023-04-05T05:56:41;99727.75;;;2.61;84.47
18988;BME280;5494;51.796;10.952;2023-04-05T05:59:09;99737.25;;;2.45;85.67
18988;BME280;5494;51.796;10.952;2023-04-05T06:01:39;99726.94;;;2.56;85.83
18988;BME280;5494;51.796;10.952;2023-04-05T06:04:08;99724.28;;;2.68;85.26
18988;BME280;5494;51.796;10.952;2023-04-05T06:06:36;99720.78;;;2.76;84.88
18988;BME280;5494;51.796;10.952;2023-04-05T06:09:06;99728.41;;;2.84;83.08
18988;BME280;5494;51.796;10.952;2023-04-05T06:11:34;99728.44;;;2.81;81.86
18988;BME280;5494;51.796;10.952;2023-04-05T06:14:09;99728.53;;;2.69;83.62
18988;BME280;5494;51.796;10.952;2023-04-05T06:16:37;99733.53;;;2.89;84.31
18988;BME280;5494;51.796;10.952;2023-04-05T06:19:05;99731.66;;;3.10;83.39
18988;BME280;5494;51.796;10.952;2023-04-05T06:21:33;99728.16;;;3.16;82.99
18988;BME280;5494;51.796;10.952;2023-04-05T06:24:03;99722.91;;;3.31;81.55
18988;BME280;5494;51.796;10.952;2023-04-05T06:26:33;99725.25;;;3.52;80.29
18988;BME280;5494;51.796;10.952;2023-04-05T06:29:01;99728.56;;;3.61;79.76
18988;BME280;5494;51.796;10.952;2023-04-05T06:31:32;99729.28;;;3.75;78.86
18988;BME280;5494;51.796;10.952;2023-04-05T06:34:01;99732.69;;;3.78;80.26
18988;BME280;5494;51.796;10.952;2023-04-05T06:36:30;99723.16;;;3.85;80.09
18988;BME280;5494;51.796;10.952;2023-04-05T06:38:59;99718.75;;;3.94;79.82
18988;BME280;5494;51.796;10.952;2023-04-05T06:41:27;99723.00;;;4.00;78.74
18988;BME280;5494;51.796;10.952;2023-04-05T06:43:58;99722.75;;;4.20;78.52
18988;BME280;5494;51.796;10.952;2023-04-05T06:46:26;99722.47;;;4.40;76.42
18988;BME280;5494;51.796;10.952;2023-04-05T06:48:54;99716.16;;;4.60;72.39
18988;BME280;5494;51.796;10.952;2023-04-05T06:51:22;99728.63;;;4.86;71.39
18988;BME280;5494;51.796;10.952;2023-04-05T06:53:51;99724.81;;;5.10;69.63
18988;BME280;5494;51.796;10.952;2023-04-05T06:56:19;99723.28;;;5.47;67.07
18988;BME280;5494;51.796;10.952;2023-04-05T06:58:47;99718.22;;;5.90;60.26
18988;BME280;5494;51.796;10.952;2023-04-05T07:01:17;99719.16;;;6.28;55.00
18988;BME280;5494;51.796;10.952;2023-04-05T07:03:45;99714.31;;;7.24;51.69
18988;BME280;5494;51.796;10.952;2023-04-05T07:06:13;99714.09;;;7.65;48.82
18988;BME280;5494;51.796;10.952;2023-04-05T07:08:42;99708.34;;;8.16;47.40
18988;BME280;5494;51.796;10.952;2023-04-05T07:11:12;99701.72;;;9.17;44.56
18988;BME280;5494;51.796;10.952;2023-04-05T07:13:40;99708.56;;;10.17;42.52
18988;BME280;5494;51.796;10.952;2023-04-05T07:16:08;99707.28;;;10.04;41.75
18988;BME280;5494;51.796;10.952;2023-04-05T07:18:38;99703.94;;;10.47;41.67
18988;BME280;5494;51.796;10.952;2023-04-05T07:21:05;99693.38;;;11.16;39.36
18988;BME280;5494;51.796;10.952;2023-04-05T07:23:33;99694.03;;;11.21;38.67
18988;BME280;5494;51.796;10.952;2023-04-05T07:26:02;99696.75;;;10.97;39.08
18988;BME280;5494;51.796;10.952;2023-04-05T07:28:31;99706.81;;;9.70;40.10
18988;BME280;5494;51.796;10.952;2023-04-05T07:31:01;99705.78;;;8.44;41.13
18988;BME280;5494;51.796;10.952;2023-04-05T07:33:30;99706.22;;;8.58;43.47
18988;BME280;5494;51.796;10.952;2023-04-05T07:35:59;99708.31;;;7.86;44.22
18988;BME280;5494;51.796;10.952;2023-04-05T07:38:29;99707.72;;;7.46;45.66
18988;BME280;5494;51.796;10.952;2023-04-05T07:40:59;99701.25;;;7.91;47.04
18988;BME280;5494;51.796;10.952;2023-04-05T07:43:27;99702.66;;;8.34;45.53
18988;BME280;5494;51.796;10.952;2023-04-05T07:46:01;99703.38;;;8.08;43.58
18988;BME280;5494;51.796;10.952;2023-04-05T07:48:29;99698.94;;;8.43;44.43
18988;BME280;5494;51.796;10.952;2023-04-05T07:51:04;99698.81;;;9.00;42.28
18988;BME280;5494;51.796;10.952;2023-04-05T07:53:33;99699.44;;;8.82;43.56
18988;BME280;5494;51.796;10.952;2023-04-05T07:56:03;99703.97;;;8.75;42.37
18988;BME280;5494;51.796;10.952;2023-04-05T07:58:32;99696.13;;;8.50;43.77
18988;BME280;5494;51.796;10.952;2023-04-05T08:01:00;99691.13;;;8.98;43.07
18988;BME280;5494;51.796;10.952;2023-04-05T08:03:29;99692.53;;;9.33;41.26
18988;BME280;5494;51.796;10.952;2023-04-05T08:05:57;99701.25;;;9.80;40.81
18988;BME280;5494;51.796;10.952;2023-04-05T08:08:27;99700.72;;;8.95;40.92
18988;BME280;5494;51.796;10.952;2023-04-05T08:10:54;99706.16;;;8.59;42.44
18988;BME280;5494;51.796;10.952;2023-04-05T08:13:23;99696.63;;;9.14;43.18
18988;BME280;5494;51.796;10.952;2023-04-05T08:15:50;99688.56;;;10.19;40.90
18988;BME280;5494;51.796;10.952;2023-04-05T08:18:18;99690.28;;;9.47;40.46
18988;BME280;5494;51.796;10.952;2023-04-05T08:20:50;99696.63;;;8.61;41.26
18988;BME280;5494;51.796;10.952;2023-04-05T08:23:18;99691.47;;;9.39;41.88
18988;BME280;5494;51.796;10.952;2023-04-05T08:25:48;99689.22;;;9.78;39.06
18988;BME280;5494;51.796;10.952;2023-04-05T08:28:16;99690.78;;;9.59;40.43
18988;BME280;5494;51.796;10.952;2023-04-05T08:30:45;99692.66;;;9.04;39.20
18988;BME280;5494;51.796;10.952;2023-04-05T08:33:13;99690.31;;;8.70;41.37
18988;BME280;5494;51.796;10.952;2023-04-05T08:35:41;99690.09;;;8.76;40.13
18988;BME280;5494;51.796;10.952;2023-04-05T08:38:10;99682.47;;;9.24;39.87
18988;BME280;5494;51.796;10.952;2023-04-05T08:40:40;99682.28;;;9.78;39.81
18988;BME280;5494;51.796;10.952;2023-04-05T08:43:17;99683.78;;;9.11;41.39
18988;BME280;5494;51.796;10.952;2023-04-05T08:45:51;99681.78;;;10.15;40.95
18988;BME280;5494;51.796;10.952;2023-04-05T08:48:19;99681.16;;;10.32;40.63
18988;BME280;5494;51.796;10.952;2023-04-05T08:50:51;99680.81;;;10.85;40.57
18988;BME280;5494;51.796;10.952;2023-04-05T08:53:20;99672.28;;;11.62;38.33
18988;BME280;5494;51.796;10.952;2023-04-05T08:55:50;99678.88;;;11.30;36.98
18988;BME280;5494;51.796;10.952;2023-04-05T08:58:23;99683.31;;;10.86;37.88
18988;BME280;5494;51.796;10.952;2023-04-05T09:00:52;99684.31;;;10.40;38.80
18988;BME280;5494;51.796;10.952;2023-04-05T09:03:28;99677.16;;;10.89;38.42
18988;BME280;5494;51.796;10.952;2023-04-05T09:05:58;99677.84;;;11.55;36.15
18988;BME280;5494;51.796;10.952;2023-04-05T09:08:27;99676.75;;;12.37;35.75
18988;BME280;5494;51.796;10.952;2023-04-05T09:10:55;99675.53;;;12.80;34.76
18988;BME280;5494;51.796;10.952;2023-04-05T09:13:24;99670.47;;;13.13;34.22
18988;BME280;5494;51.796;10.952;2023-04-05T09:15:52;99670.19;;;13.00;33.47
18988;BME280;5494;51.796;10.952;2023-04-05T09:18:20;99674.13;;;12.91;33.26
18988;BME280;5494;51.796;10.952;2023-04-05T09:21:01;99674.63;;;12.26;34.23
18988;BME280;5494;51.796;10.952;2023-04-05T09:23:29;99668.59;;;11.68;35.72
18988;BME280;5494;51.796;10.952;2023-04-05T09:25:57;99662.31;;;12.11;35.85
18988;BME280;5494;51.796;10.952;2023-04-05T09:28:40;99664.34;;;12.42;35.60
18988;BME280;5494;51.796;10.952;2023-04-05T09:31:28;99671.09;;;11.69;34.68
18988;BME280;5494;51.796;10.952;2023-04-05T09:33:57;99676.09;;;10.51;36.08
18988;BME280;5494;51.796;10.952;2023-04-05T09:36:26;99676.84;;;9.36;37.02
18988;BME280;5494;51.796;10.952;2023-04-05T09:39:05;99684.38;;;9.19;38.77
18988;BME280;5494;51.796;10.952;2023-04-05T09:41:35;99683.81;;;8.57;40.21
18988;BME280;5494;51.796;10.952;2023-04-05T09:44:04;99676.78;;;8.33;42.57
18988;BME280;5494;51.796;10.952;2023-04-05T09:46:34;99680.94;;;7.78;43.81
18988;BME280;5494;51.796;10.952;2023-04-05T09:49:04;99682.72;;;7.76;43.89
18988;BME280;5494;51.796;10.952;2023-04-05T09:51:37;99684.09;;;7.58;43.68
18988;BME280;5494;51.796;10.952;2023-04-05T09:54:10;99678.41;;;7.76;44.88
18988;BME280;5494;51.796;10.952;2023-04-05T09:56:40;99682.06;;;7.68;42.78
18988;BME280;5494;51.796;10.952;2023-04-05T09:59:21;99678.81;;;7.92;41.66
18988;BME280;5494;51.796;10.952;2023-04-05T10:01:51;99675.09;;;8.30;41.68
18988;BME280;5494;51.796;10.952;2023-04-05T10:04:18;99664.22;;;8.48;39.51
18988;BME280;5494;51.796;10.952;2023-04-05T10:06:47;99662.84;;;9.40;38.79
18988;BME280;5494;51.796;10.952;2023-04-05T10:09:15;99670.63;;;9.65;37.13
18988;BME280;5494;51.796;10.952;2023-04-05T10:11:45;99663.81;;;9.38;36.12
18988;BME280;5494;51.796;10.952;2023-04-05T10:14:13;99663.31;;;10.00;36.97
18988;BME280;5494;51.796;10.952;2023-04-05T10:16:52;99651.06;;;10.70;35.10
18988;BME280;5494;51.796;10.952;2023-04-05T10:19:33;99656.88;;;10.97;34.09
18988;BME280;5494;51.796;10.952;2023-04-05T10:22:19;99655.19;;;11.57;34.59
18988;BME280;5494;51.796;10.952;2023-04-05T10:24:56;99644.97;;;11.91;32.97
18988;BME280;5494;51.796;10.952;2023-04-05T10:27:32;99644.47;;;12.39;31.64
18988;BME280;5494;51.796;10.952;2023-04-05T10:30:07;99634.88;;;12.40;32.18
18988;BME280;5494;51.796;10.952;2023-04-05T10:33:00;99641.00;;;12.57;32.49
18988;BME280;5494;51.796;10.952;2023-04-05T10:35:40;99638.84;;;12.30;32.60
18988;BME280;5494;51.796;10.952;2023-04-05T10:38:19;99641.09;;;12.37;32.17
18988;BME280;5494;51.796;10.952;2023-04-05T10:40:54;99640.03;;;12.41;31.71
18988;BME280;5494;51.796;10.952;2023-04-05T10:43:25;99643.31;;;12.09;31.73
18988;BME280;5494;51.796;10.952;2023-04-05T10:45:56;99649.34;;;11.91;31.83
18988;BME280;5494;51.796;10.952;2023-04-05T10:48:41;99641.31;;;12.14;31.64
18988;BME280;5494;51.796;10.952;2023-04-05T10:51:12;99632.59;;;12.15;32.01
18988;BME280;5494;51.796;10.952;2023-04-05T10:53:40;99633.72;;;11.70;31.81
18988;BME280;5494;51.796;10.952;2023-04-05T10:56:10;99631.00;;;11.55;32.38
18988;BME280;5494;51.796;10.952;2023-04-05T10:58:39;99629.38;;;11.32;33.49
18988;BME280;5494;51.796;10.952;2023-04-05T11:01:08;99634.00;;;11.25;33.42
18988;BME280;5494;51.796;10.952;2023-04-05T11:03:49;99624.50;;;11.24;34.05
18988;BME280;5494;51.796;10.952;2023-04-05T11:06:23;99625.16;;;11.09;34.82
18988;BME280;5494;51.796;10.952;2023-04-05T11:08:57;99634.66;;;11.10;34.40
18988;BME280;5494;51.796;10.952;2023-04-05T11:11:26;99630.41;;;11.28;33.86
18988;BME280;5494;51.796;10.952;2023-04-05T11:13:55;99628.78;;;11.25;33.48
18988;BME280;5494;51.796;10.952;2023-04-05T11:16:38;99627.41;;;11.37;33.88
18988;BME280;5494;51.796;10.952;2023-04-05T11:19:08;99618.59;;;11.60;33.44
18988;BME280;5494;51.796;10.952;2023-04-05T11:21:36;99619.75;;;11.34;34.37
18988;BME280;5494;51.796;10.952;2023-04-05T11:24:07;99621.91;;;11.04;35.12
18988;BME280;5494;51.796;10.952;2023-04-05T11:26:54;99624.50;;;11.04;34.42
18988;BME280;5494;51.796;10.952;2023-04-05T11:29:45;99620.25;;;11.01;34.35
18988;BME280;5494;51.796;10.952;2023-04-05T11:32:17;99616.16;;;10.76;33.84
18988;BME280;5494;51.796;10.952;2023-04-05T11:34:57;99617.81;;;10.56;34.73
18988;BME280;5494;51.796;10.952;2023-04-05T11:37:52;99603.78;;;10.60;35.92
18988;BME280;5494;51.796;10.952;2023-04-05T11:40:26;99604.34;;;10.89;35.34
18988;BME280;5494;51.796;10.952;2023-04-05T11:43:02;99596.25;;;10.75;35.24
18988;BME280;5494;51.796;10.952;2023-04-05T11:45:33;99593.91;;;10.69;34.68
18988;BME280;5494;51.796;10.952;2023-04-05T11:48:05;99596.88;;;10.59;35.12
18988;BME280;5494;51.796;10.952;2023-04-05T11:50:36;99593.13;;;10.87;35.03
18988;BME280;5494;51.796;10.952;2023-04-05T11:53:11;99590.16;;;10.96;33.78
18988;BME280;5494;51.796;10.952;2023-04-05T11:55:41;99581.22;;;11.22;33.29
18988;BME280;5494;51.796;10.952;2023-04-05T11:58:14;99582.81;;;11.05;33.80
18988;BME280;5494;51.796;10.952;2023-04-05T12:00:45;99585.81;;;10.54;33.12
18988;BME280;5494;51.796;10.952;2023-04-05T12:03:15;99580.56;;;10.12;33.90
18988;BME280;5494;51.796;10.952;2023-04-05T12:05:47;99578.09;;;10.31;34.48
18988;BME280;5494;51.796;10.952;2023-04-05T12:08:15;99565.34;;;10.47;35.39
18988;BME280;5494;51.796;10.952;2023-04-05T12:10:44;99561.59;;;10.54;34.84
18988;BME280;5494;51.796;10.952;2023-04-05T12:13:27;99569.78;;;10.23;33.31
18988;BME280;5494;51.796;10.952;2023-04-05T12:15:58;99567.28;;;10.42;35.15
18988;BME280;5494;51.796;10.952;2023-04-05T12:18:29;99558.88;;;10.77;34.76
18988;BME280;5494;51.796;10.952;2023-04-05T12:21:00;99559.81;;;11.15;33.06
18988;BME280;5494;51.796;10.952;2023-04-05T12:23:33;99558.88;;;11.18;32.09
18988;BME280;5494;51.796;10.952;2023-04-05T12:26:05;99563.28;;;10.55;34.79
18988;BME280;5494;51.796;10.952;2023-04-05T12:28:49;99562.81;;;9.08;38.95
18988;BME280;5494;51.796;10.952;2023-04-05T12:31:38;99571.13;;;8.68;39.38
18988;BME280;5494;51.796;10.952;2023-04-05T12:34:07;99557.47;;;8.37;39.45
18988;BME280;5494;51.796;10.952;2023-04-05T12:36:38;99553.44;;;8.01;40.10
18988;BME280;5494;51.796;10.952;2023-04-05T12:39:08;99556.25;;;7.65;40.23
18988;BME280;5494;51.796;10.952;2023-04-05T12:41:37;99542.34;;;7.68;41.01
18988;BME280;5494;51.796;10.952;2023-04-05T12:44:10;99547.53;;;7.68;40.95
18988;BME280;5494;51.796;10.952;2023-04-05T12:46:39;99538.13;;;7.95;39.91
18988;BME280;5494;51.796;10.952;2023-04-05T12:49:10;99545.25;;;8.42;39.12
18988;BME280;5494;51.796;10.952;2023-04-05T12:51:42;99538.06;;;8.50;39.77
18988;BME280;5494;51.796;10.952;2023-04-05T12:54:11;99537.81;;;7.76;38.70
18988;BME280;5494;51.796;10.952;2023-04-05T12:56:40;99535.75;;;7.59;40.14
18988;BME280;5494;51.796;10.952;2023-04-05T12:59:08;99539.91;;;7.63;41.37
18988;BME280;5494;51.796;10.952;2023-04-05T13:01:37;99532.53;;;7.51;41.98
18988;BME280;5494;51.796;10.952;2023-04-05T13:04:05;99530.63;;;7.85;40.75
18988;BME280;5494;51.796;10.952;2023-04-05T13:06:44;99527.75;;;7.37;42.53
18988;BME280;5494;51.796;10.952;2023-04-05T13:09:13;99536.16;;;7.45;41.22
18988;BME280;5494;51.796;10.952;2023-04-05T13:11:41;99533.16;;;7.30;40.42
18988;BME280;5494;51.796;10.952;2023-04-05T13:14:09;99523.19;;;7.16;42.28
18988;BME280;5494;51.796;10.952;2023-04-05T13:16:37;99516.88;;;6.95;41.48
18988;BME280;5494;51.796;10.952;2023-04-05T13:19:05;99532.34;;;6.64;42.73
18988;BME280;5494;51.796;10.952;2023-04-05T13:21:33;99521.63;;;6.46;43.55
18988;BME280;5494;51.796;10.952;2023-04-05T13:24:03;99515.59;;;6.47;42.80
18988;BME280;5494;51.796;10.952;2023-04-05T13:26:31;99514.91;;;6.72;41.98
18988;BME280;5494;51.796;10.952;2023-04-05T13:28:59;99506.75;;;6.57;41.02
18988;BME280;5494;51.796;10.952;2023-04-05T13:31:27;99511.16;;;6.52;41.46